createdAt,value
2023-03-16T00:00:36.177Z,1.18
2023-03-16T00:03:40.119Z,1.15
2023-03-16T00:06:41.666Z,1.08
2023-03-16T00:09:45.967Z,1.05
2023-03-16T00:12:50.136Z,0.99
2023-03-16T00:16:00.301Z,0.93
2023-03-16T00:19:03.315Z,0.88
2023-03-16T00:22:04.955Z,0.87
2023-03-16T00:25:07.076Z,0.86
2023-03-16T00:28:09.838Z,0.81
2023-03-16T00:31:12.101Z,0.77
2023-03-16T00:34:16.822Z,0.78
2023-03-16T00:37:23.897Z,0.77
2023-03-16T00:40:28.297Z,0.76
2023-03-16T00:43:40.909Z,0.73
2023-03-16T00:46:43.325Z,0.75
2023-03-16T00:49:45.476Z,0.73
2023-03-16T00:52:47.044Z,0.73
2023-03-16T00:55:48.603Z,0.75
2023-03-16T00:58:50.587Z,0.77
2023-03-16T01:01:55.626Z,0.80
2023-03-16T01:04:57.266Z,0.82
2023-03-16T01:08:02.768Z,0.84
2023-03-16T01:11:05.923Z,0.86
2023-03-16T01:14:07.493Z,0.89
2023-03-16T01:17:10.117Z,0.90
2023-03-16T01:20:12.640Z,0.91
2023-03-16T01:23:15.773Z,0.92
2023-03-16T01:26:18.768Z,0.93
2023-03-16T01:29:22.102Z,0.95
2023-03-16T01:32:28.068Z,0.96
2023-03-16T01:35:30.069Z,0.97
2023-03-16T01:38:33.562Z,0.97
2023-03-16T01:41:36.216Z,0.99
2023-03-16T01:44:54.554Z,0.99
2023-03-16T01:47:58.748Z,0.98
2023-03-16T01:51:00.955Z,0.95
2023-03-16T01:54:08.993Z,0.92
2023-03-16T01:57:16.473Z,0.89
2023-03-16T02:00:23.622Z,0.83
2023-03-16T02:03:39.575Z,0.79
2023-03-16T02:06:50.384Z,0.72
2023-03-16T02:09:56.188Z,0.70
2023-03-16T02:12:59.568Z,0.64
2023-03-16T02:16:01.820Z,0.61
2023-03-16T02:19:09.555Z,0.54
2023-03-16T02:22:14.004Z,0.49
2023-03-16T02:25:19.123Z,0.46
2023-03-16T02:29:20.153Z,0.40
2023-03-16T02:32:26.398Z,0.35
2023-03-16T02:35:28.634Z,0.31
2023-03-16T02:38:30.299Z,0.29
2023-03-16T02:41:32.896Z,0.28
2023-03-16T02:44:37.218Z,0.24
2023-03-16T02:47:45.129Z,0.17
2023-03-16T02:50:49.759Z,0.19
2023-03-16T02:53:53.545Z,0.16
2023-03-16T02:56:56.711Z,0.13
2023-03-16T02:59:59.828Z,0.10
2023-03-16T03:03:03.490Z,0.09
2023-03-16T03:06:07.023Z,0.04
2023-03-16T03:09:11.835Z,0.02
2023-03-16T03:12:14.717Z,-0.01
2023-03-16T03:15:18.167Z,-0.03
2023-03-16T03:18:35.577Z,-0.07
2023-03-16T03:21:38.455Z,-0.10
2023-03-16T03:24:45.218Z,-0.11
2023-03-16T03:27:49.002Z,-0.12
2023-03-16T03:30:53.718Z,-0.15
2023-03-16T03:33:55.789Z,-0.20
2023-03-16T03:36:59.537Z,-0.20
2023-03-16T03:40:11.580Z,-0.22
2023-03-16T03:43:14.999Z,-0.24
2023-03-16T03:46:19.777Z,-0.26
2023-03-16T03:49:22.019Z,-0.29
2023-03-16T03:52:27.240Z,-0.31
2023-03-16T03:55:30.994Z,-0.33
2023-03-16T03:58:32.883Z,-0.34
2023-03-16T04:01:35.139Z,-0.39
2023-03-16T04:04:37.895Z,-0.39
2023-03-16T04:07:40.197Z,-0.41
2023-03-16T04:10:47.646Z,-0.43
2023-03-16T04:13:56.379Z,-0.44
2023-03-16T04:17:01.934Z,-0.48
2023-03-16T04:20:18.184Z,-0.49
2023-03-16T04:23:25.365Z,-0.52
2023-03-16T04:26:30.545Z,-0.55
2023-03-16T04:29:34.619Z,-0.56
2023-03-16T04:32:41.560Z,-0.57
2023-03-16T04:35:49.554Z,-0.60
2023-03-16T04:38:53.934Z,-0.63
2023-03-16T04:41:57.045Z,-0.65
2023-03-16T04:45:03.794Z,-0.65
2023-03-16T04:48:10.187Z,-0.65
2023-03-16T04:51:13.794Z,-0.66
2023-03-16T04:54:23.211Z,-0.68
2023-03-16T04:57:25.352Z,-0.68
2023-03-16T05:00:29.928Z,-0.70
2023-03-16T05:03:38.738Z,-0.71
2023-03-16T05:06:41.374Z,-0.71
2023-03-16T05:09:44.131Z,-0.72
2023-03-16T05:12:47.705Z,-0.74
2023-03-16T05:15:50.508Z,-0.75
2023-03-16T05:19:00.143Z,-0.75
2023-03-16T05:22:06.711Z,-0.78
2023-03-16T05:25:15.336Z,-0.77
2023-03-16T05:28:20.617Z,-0.78
2023-03-16T05:31:38.528Z,-0.77
2023-03-16T05:34:46.129Z,-0.79
2023-03-16T05:37:47.849Z,-0.80
2023-03-16T05:40:54.572Z,-0.81
2023-03-16T05:44:13.596Z,-0.81
2023-03-16T05:47:31.364Z,-0.79
2023-03-16T05:50:33.149Z,-0.80
2023-03-16T05:53:36.498Z,-0.77
2023-03-16T05:56:44.549Z,-0.77
2023-03-16T05:59:46.386Z,-0.74
2023-03-16T06:02:51.366Z,-0.69
2023-03-16T06:05:53.629Z,-0.72
2023-03-16T06:09:04.695Z,-0.64
2023-03-16T06:12:09.633Z,-0.61
2023-03-16T06:15:11.892Z,-0.58
2023-03-16T06:18:13.925Z,-0.55
2023-03-16T06:21:18.219Z,-0.49
2023-03-16T06:24:23.252Z,-0.41
2023-03-16T06:27:26.701Z,-0.34
2023-03-16T06:30:42.149Z,-0.29
2023-03-16T06:33:43.924Z,-0.26
2023-03-16T06:36:46.141Z,-0.23
2023-03-16T06:39:48.828Z,-0.15
2023-03-16T06:42:51.444Z,-0.06
2023-03-16T06:45:53.441Z,-0.02
2023-03-16T06:48:56.596Z,0.07
2023-03-16T06:51:58.789Z,0.14
2023-03-16T06:55:01.360Z,0.20
2023-03-16T06:58:06.395Z,0.28
2023-03-16T07:01:08.551Z,0.32
2023-03-16T07:04:12.771Z,0.46
2023-03-16T07:07:17.313Z,0.55
2023-03-16T07:10:19.497Z,0.61
2023-03-16T07:13:22.038Z,0.64
2023-03-16T07:16:24.146Z,0.75
2023-03-16T07:19:26.610Z,0.84
2023-03-16T07:22:32.259Z,0.90
2023-03-16T07:25:35.630Z,0.97
2023-03-16T07:28:39.534Z,1.07
2023-03-16T07:31:41.868Z,1.16
2023-03-16T07:34:49.723Z,1.22
2023-03-16T07:37:54.818Z,1.29
2023-03-16T07:40:57.494Z,1.38
2023-03-16T07:44:00.737Z,1.46
2023-03-16T07:47:02.342Z,1.52
2023-03-16T07:50:06.443Z,1.60
2023-03-16T07:53:09.200Z,1.66
2023-03-16T07:56:14.280Z,1.70
2023-03-16T07:59:21.570Z,1.77
2023-03-16T08:02:23.385Z,1.85
2023-03-16T08:05:27.828Z,1.93
2023-03-16T08:08:34.659Z,2.00
2023-03-16T08:11:37.079Z,2.08
2023-03-16T08:14:39.048Z,2.21
2023-03-16T08:17:47.895Z,2.28
2023-03-16T08:20:57.763Z,2.38
2023-03-16T08:24:01.731Z,2.45
2023-03-16T08:27:04.586Z,2.52
2023-03-16T08:30:11.380Z,2.64
2023-03-16T08:33:18.030Z,2.72
2023-03-16T08:36:21.042Z,2.81
2023-03-16T08:39:26.562Z,2.93
2023-03-16T08:42:31.356Z,3.02
2023-03-16T08:45:37.160Z,3.11
2023-03-16T08:48:42.816Z,3.19
2023-03-16T08:51:45.226Z,3.25
2023-03-16T08:55:01.531Z,3.31
2023-03-16T08:58:05.483Z,3.40
2023-03-16T09:01:09.063Z,3.48
2023-03-16T09:04:13.172Z,3.55
2023-03-16T09:07:16.027Z,3.65
2023-03-16T09:10:19.421Z,3.71
2023-03-16T09:13:23.569Z,3.76
2023-03-16T09:16:28.371Z,3.82
2023-03-16T09:19:51.118Z,3.92
2023-03-16T09:22:59.680Z,3.98
2023-03-16T09:29:26.869Z,4.06
2023-03-16T09:32:32.739Z,4.15
2023-03-16T09:35:37.327Z,4.23
2023-03-16T09:38:42.588Z,4.32
2023-03-16T09:42:08.419Z,4.38
2023-03-16T09:45:22.940Z,4.46
2023-03-16T09:48:26.845Z,4.51
2023-03-16T09:51:49.786Z,4.55
2023-03-16T09:55:07.584Z,4.65
2023-03-16T09:58:17.947Z,4.76
2023-03-16T10:01:37.753Z,4.82
2023-03-16T10:04:55.406Z,4.90
2023-03-16T10:08:19.653Z,4.97
2023-03-16T10:11:24.450Z,5.05
2023-03-16T10:15:09.977Z,5.17
2023-03-16T10:18:29.683Z,5.24
2023-03-16T10:21:38.682Z,5.29
2023-03-16T10:24:57.207Z,5.35
2023-03-16T10:27:58.915Z,5.40
2023-03-16T10:31:02.196Z,5.54
2023-03-16T10:34:06.854Z,5.60
2023-03-16T10:37:13.606Z,5.69
2023-03-16T10:40:16.012Z,5.74
2023-03-16T10:43:18.157Z,5.82
2023-03-16T10:46:20.057Z,5.85
2023-03-16T10:49:27.730Z,5.96
2023-03-16T10:52:29.748Z,6.01
2023-03-16T10:55:42.116Z,6.01
2023-03-16T10:58:43.761Z,6.07
2023-03-16T11:01:50.147Z,6.11
2023-03-16T11:04:53.126Z,6.15
2023-03-16T11:08:13.792Z,6.21
2023-03-16T11:11:32.552Z,6.27
2023-03-16T11:14:37.352Z,6.35
2023-03-16T11:17:45.748Z,6.41
2023-03-16T11:20:48.339Z,6.47
2023-03-16T11:23:55.133Z,6.50
2023-03-16T11:27:01.028Z,6.52
2023-03-16T11:30:05.533Z,6.57
2023-03-16T11:33:14.126Z,6.61
2023-03-16T11:36:21.325Z,6.61
2023-03-16T11:39:42.720Z,6.62
2023-03-16T11:43:00.413Z,6.64
2023-03-16T11:46:16.878Z,6.68
2023-03-16T11:49:39.712Z,6.75
2023-03-16T11:52:53.695Z,6.73
2023-03-16T11:56:08.049Z,6.74
2023-03-16T12:00:01.184Z,6.81
2023-03-16T12:03:25.885Z,6.77
2023-03-16T12:06:38.714Z,6.83
2023-03-16T12:09:52.338Z,6.77
2023-03-16T12:13:06.791Z,6.88
2023-03-16T12:16:17.513Z,6.97
2023-03-16T12:19:42.807Z,7.07
2023-03-16T12:22:49.702Z,7.16
2023-03-16T12:25:53.462Z,7.24
2023-03-16T12:28:57.274Z,7.32
2023-03-16T12:32:15.977Z,7.38
2023-03-16T12:35:45.010Z,7.39
2023-03-16T12:39:13.673Z,7.42
2023-03-16T12:42:15.284Z,7.44
2023-03-16T12:45:34.143Z,7.44
2023-03-16T12:48:44.615Z,7.56
2023-03-16T12:51:48.158Z,7.59
2023-03-16T12:55:20.085Z,7.66
2023-03-16T12:58:24.515Z,7.69
2023-03-16T13:01:31.591Z,7.72
2023-03-16T13:04:42.377Z,7.78
2023-03-16T13:07:55.516Z,7.82
2023-03-16T13:11:11.825Z,7.87
2023-03-16T13:14:38.276Z,7.91
2023-03-16T13:17:39.984Z,7.90
2023-03-16T13:21:01.793Z,7.89
2023-03-16T13:24:18.652Z,7.95
2023-03-16T13:27:28.462Z,7.95
2023-03-16T13:30:34.224Z,7.91
2023-03-16T13:33:38.253Z,7.95
2023-03-16T13:36:40.096Z,7.95
2023-03-16T13:39:41.711Z,7.98
2023-03-16T13:42:47.201Z,8.04
2023-03-16T13:45:49.070Z,8.08
2023-03-16T13:48:51.301Z,8.10
2023-03-16T13:51:55.118Z,8.16
2023-03-16T13:55:02.588Z,8.17
2023-03-16T13:58:05.831Z,8.15
2023-03-16T14:01:26.458Z,8.20
2023-03-16T14:04:43.556Z,8.24
2023-03-16T14:07:52.032Z,8.26
2023-03-16T14:11:04.718Z,8.31
2023-03-16T14:14:18.122Z,8.31
2023-03-16T14:17:29.629Z,8.39
2023-03-16T14:20:34.962Z,8.43
2023-03-16T14:23:52.989Z,8.50
2023-03-16T14:26:55.700Z,8.53
2023-03-16T14:30:02.124Z,8.61
2023-03-16T14:33:24.983Z,8.70
2023-03-16T14:36:36.084Z,8.84
2023-03-16T14:39:38.367Z,9.01
2023-03-16T14:42:40.372Z,9.16
2023-03-16T14:45:42.677Z,9.40
2023-03-16T14:48:45.747Z,9.79
2023-03-16T14:51:49.365Z,10.17
2023-03-16T14:54:52.304Z,10.46
2023-03-16T14:57:54.009Z,10.51
2023-03-16T15:00:56.192Z,10.74
2023-03-16T15:03:58.005Z,11.03
2023-03-16T15:07:01.972Z,11.26
2023-03-16T15:10:16.840Z,11.47
2023-03-16T15:13:37.161Z,11.64
2023-03-16T15:16:39.162Z,11.77
2023-03-16T15:19:41.163Z,11.70
2023-03-16T15:22:44.694Z,11.83
2023-03-16T15:25:48.718Z,12.01
2023-03-16T15:28:50.309Z,12.01
2023-03-16T15:31:54.413Z,12.05
2023-03-16T15:34:56.322Z,12.02
2023-03-16T15:37:57.981Z,12.19
2023-03-16T15:41:00.148Z,12.21
2023-03-16T15:44:02.667Z,12.13
2023-03-16T15:47:04.573Z,12.09
2023-03-16T15:50:06.698Z,12.02
2023-03-16T15:53:31.044Z,11.66
2023-03-16T15:56:47.233Z,11.45
2023-03-16T15:59:53.793Z,11.29
2023-03-16T16:02:58.015Z,11.16
2023-03-16T16:05:59.732Z,11.03
2023-03-16T16:09:09.084Z,10.83
2023-03-16T16:12:15.682Z,10.67
2023-03-16T16:15:34.021Z,10.50
2023-03-16T16:18:37.429Z,10.41
2023-03-16T16:21:50.545Z,10.24
2023-03-16T16:24:52.607Z,10.15
2023-03-16T16:27:54.528Z,10.05
2023-03-16T16:30:57.639Z,9.88
2023-03-16T16:33:59.811Z,9.71
2023-03-16T16:37:01.599Z,9.61
2023-03-16T16:40:03.497Z,9.51
2023-03-16T16:43:06.467Z,9.34
2023-03-16T16:46:18.521Z,9.28
2023-03-16T16:49:30.488Z,9.27
2023-03-16T16:52:32.319Z,9.20
2023-03-16T16:55:34.010Z,9.08
2023-03-16T16:58:35.594Z,9.01
2023-03-16T17:01:37.340Z,8.94
2023-03-16T17:04:38.979Z,8.87
2023-03-16T17:07:40.986Z,8.78
2023-03-16T17:10:43.063Z,8.69
2023-03-16T17:13:46.886Z,8.60
2023-03-16T17:16:50.430Z,8.48
2023-03-16T17:19:52.082Z,8.42
2023-03-16T17:22:54.721Z,8.32
2023-03-16T17:25:59.198Z,8.21
2023-03-16T17:29:06.348Z,8.10
2023-03-16T17:32:18.528Z,8.00
2023-03-16T17:35:20.949Z,7.85
2023-03-16T17:38:24.272Z,7.75
2023-03-16T17:41:28.265Z,7.65
2023-03-16T17:44:34.753Z,7.55
2023-03-16T17:47:40.140Z,7.47
2023-03-16T17:50:48.394Z,7.36
2023-03-16T17:53:50.282Z,7.25
2023-03-16T17:56:53.934Z,7.16
2023-03-16T17:59:56.464Z,7.12
2023-03-16T18:03:15.095Z,7.04
2023-03-16T18:06:20.330Z,6.99
2023-03-16T18:09:24.833Z,6.93
2023-03-16T18:12:28.128Z,6.89
2023-03-16T18:15:33.082Z,6.82
2023-03-16T18:18:40.071Z,6.77
2023-03-16T18:21:42.275Z,6.67
2023-03-16T18:24:45.046Z,6.67
2023-03-16T18:27:46.589Z,6.62
2023-03-16T18:30:54.475Z,6.58
2023-03-16T18:34:02.012Z,6.50
2023-03-16T18:37:06.269Z,6.48
2023-03-16T18:40:12.860Z,6.42
2023-03-16T18:43:16.988Z,6.38
2023-03-16T18:46:37.248Z,6.32
2023-03-16T18:49:39.356Z,6.26
2023-03-16T18:52:46.263Z,6.25
2023-03-16T18:55:49.625Z,6.19
2023-03-16T18:58:53.620Z,6.16
2023-03-16T19:01:57.812Z,6.13
2023-03-16T19:05:04.094Z,6.07
2023-03-16T19:08:09.610Z,6.01
2023-03-16T19:11:15.534Z,5.95
2023-03-16T19:14:18.556Z,5.91
2023-03-16T19:17:20.814Z,5.87
2023-03-16T19:20:28.013Z,5.85
2023-03-16T19:23:36.297Z,5.82
2023-03-16T19:26:37.876Z,5.81
2023-03-16T19:29:39.927Z,5.78
2023-03-16T19:32:41.636Z,5.74
2023-03-16T19:35:51.587Z,5.72
2023-03-16T19:38:53.917Z,5.68
2023-03-16T19:41:59.154Z,5.67
2023-03-16T19:45:01.094Z,5.62
2023-03-16T19:48:02.710Z,5.60
2023-03-16T19:51:06.537Z,5.58
2023-03-16T19:54:25.361Z,5.54
2023-03-16T19:57:28.857Z,5.48
2023-03-16T20:00:31.458Z,5.46
2023-03-16T20:03:37.601Z,5.44
2023-03-16T20:06:40.295Z,5.41
2023-03-16T20:09:44.545Z,5.37
2023-03-16T20:12:50.119Z,5.35
2023-03-16T20:16:04.638Z,5.31
2023-03-16T20:19:14.888Z,5.26
2023-03-16T20:22:30.061Z,5.21
2023-03-16T20:25:35.510Z,5.16
2023-03-16T20:28:39.816Z,5.12
2023-03-16T20:31:44.403Z,5.10
2023-03-16T20:34:51.249Z,5.05
2023-03-16T20:37:52.997Z,5.01
2023-03-16T20:41:00.626Z,4.99
2023-03-16T20:44:09.971Z,4.95
2023-03-16T20:47:17.757Z,4.90
2023-03-16T20:50:29.567Z,4.87
2023-03-16T20:53:36.655Z,4.80
2023-03-16T20:56:43.560Z,4.76
2023-03-16T20:59:47.950Z,4.72
2023-03-16T21:02:50.122Z,4.68
2023-03-16T21:05:53.699Z,4.64
2023-03-16T21:09:03.362Z,4.63
2023-03-16T21:12:11.298Z,4.59
2023-03-16T21:15:26.212Z,4.56
2023-03-16T21:18:29.137Z,4.54
2023-03-16T21:21:32.933Z,4.50
2023-03-16T21:24:37.648Z,4.47
2023-03-16T21:27:41.661Z,4.47
2023-03-16T21:30:51.164Z,4.43
2023-03-16T21:33:54.829Z,4.42
2023-03-16T21:36:56.372Z,4.39
2023-03-16T21:39:59.572Z,4.38
2023-03-16T21:43:02.686Z,4.35
2023-03-16T21:46:04.573Z,4.33
2023-03-16T21:49:10.950Z,4.28
2023-03-16T21:52:23.667Z,4.27
2023-03-16T21:55:29.228Z,4.23
2023-03-16T21:58:30.869Z,4.22
2023-03-16T22:01:33.456Z,4.16
2023-03-16T22:04:35.052Z,4.11
2023-03-16T22:07:36.687Z,4.07
2023-03-16T22:10:39.901Z,4.02
2023-03-16T22:13:41.564Z,3.99
2023-03-16T22:16:43.458Z,3.92
2023-03-16T22:19:45.089Z,3.87
2023-03-16T22:22:46.864Z,3.81
2023-03-16T22:25:48.416Z,3.74
2023-03-16T22:28:53.618Z,3.70
2023-03-16T22:32:06.268Z,3.66
2023-03-16T22:35:24.844Z,3.62
2023-03-16T22:38:27.156Z,3.55
2023-03-16T22:41:30.060Z,3.47
2023-03-16T22:44:31.763Z,3.43
2023-03-16T22:47:33.412Z,3.40
2023-03-16T22:50:35.881Z,3.35
2023-03-16T22:53:41.853Z,3.31
2023-03-16T22:56:46.071Z,3.28
2023-03-16T22:59:49.302Z,3.24
2023-03-16T23:02:51.137Z,3.17
2023-03-16T23:05:53.321Z,3.19
2023-03-16T23:08:55.778Z,3.16
2023-03-16T23:11:59.392Z,3.13
2023-03-16T23:15:01.193Z,3.03
2023-03-16T23:18:02.794Z,3.05
2023-03-16T23:21:04.462Z,3.01
2023-03-16T23:24:06.373Z,2.94
2023-03-16T23:27:21.650Z,2.96
2023-03-16T23:30:25.812Z,2.92
2023-03-16T23:33:27.504Z,2.90
2023-03-16T23:36:29.551Z,2.84
2023-03-16T23:39:31.638Z,2.81
2023-03-16T23:42:33.213Z,2.77
2023-03-16T23:45:41.182Z,2.75
2023-03-16T23:48:45.936Z,2.72
2023-03-16T23:51:47.802Z,2.70
2023-03-16T23:54:50.174Z,2.71
2023-03-16T23:57:51.848Z,2.69
